Terminal Aerodrome Forecast
Issued by NWS

Home | Current Version | Previous Version | Text Only | Print | Product List | Glossary On
Versions: 1 2 3 4 5 6 7 8 9 10 11 12
422
FTUS44 KLZK 071120
TAFHRO
TAF
KHRO 071120Z 0712/0812 VRB05KT P6SM SCT250
     FM071800 28008G15KT P6SM SCT120 BKN250
     FM080200 30012G20KT P6SM SCT250
     FM080600 30010G18KT P6SM OVC100
     FM081000 30012G22KT P6SM BKN050 OVC100=

USA.gov is the U.S. government's official web portal to all federal, state and local government web resources and services.